Posted by: Patrick | March 14, 2011

Day before Check Ride – 3/14/2011

I stopped by the hanger and checked on 8TJ to make sure everything is in order.
Tomorrow the the day for check ride.

Weather is not looking good, high winds
KWJF 142356Z 27017KT 10SM CLR 13/08 A3009

need to rest and be ready for the big day.

Advertisements

Leave a Reply

Fill in your details below or click an icon to log in:

WordPress.com Logo

You are commenting using your WordPress.com account. Log Out / Change )

Twitter picture

You are commenting using your Twitter account. Log Out / Change )

Facebook photo

You are commenting using your Facebook account. Log Out / Change )

Google+ photo

You are commenting using your Google+ account. Log Out / Change )

Connecting to %s

Categories

%d bloggers like this: